Strona główna
METAR-TAF:

METAR-TAF

Lotnisko :

Joliet Regional Airport

Joliet, Illinois, Stany Zjednoczone

Szerokość geograficzna: 41-31-05N, Długość geograficzna: 088-10-31W, wysokość: 177 m

Aktualna obserwacja pogody

Raport powstał 27 minut temu, godzina 14:15 UTC
Wiatr 6 kt od południowy zachód
Temperatura 30°C
Wilgotność 79%
Ciśnienie 1011 hPa
Widzialność: 16.1 km
bezchmurnie

METAR: KJOT 191415Z AUTO 22006KT 10SM CLR 30/26 A2984 RMK AO2 T02970264

czas: 09:42 (14:42 UTC)


TAF: brakujący

Obserwacja i prognoza pogody dla ponad 4000 lotnisk (raport METAR i TAF).

Dostępne stacje oznaczono żółtymi i czerwonymi punktami na mapie.

Najedź kursorem aby zobaczyć nazwę stacji.

Kliknij aby zobaczyć obserwacje i prognozy pogody.

Aby zmienić mapę: kliknij na zielony przycisk z czarnym krzyżykiem, aby powiększyć; na zielony przycisk z myślnikiem, aby pomniejszyć; na zielone strzałki, aby przejść do map sąsiednich.


METAR-TAF: